createdAt,value
2023-01-01T00:01:45.690Z,100.00
2023-01-01T00:04:23.193Z,100.00
2023-01-01T00:06:58.650Z,100.00
2023-01-01T00:09:43.740Z,100.00
2023-01-01T00:12:21.047Z,100.00
2023-01-01T00:14:48.156Z,100.00
2023-01-01T00:17:19.501Z,100.00
2023-01-01T00:19:46.459Z,100.00
2023-01-01T00:22:52.600Z,100.00
2023-01-01T00:25:05.250Z,100.00
2023-01-01T00:27:36.111Z,100.00
2023-01-01T00:30:04.455Z,100.00
2023-01-01T00:32:54.791Z,100.00
2023-01-01T00:35:25.272Z,100.00
2023-01-01T00:37:53.809Z,100.00
2023-01-01T00:40:22.370Z,100.00
2023-01-01T00:48:16.880Z,100.00
2023-01-01T00:50:43.841Z,100.00
2023-01-01T00:55:53.820Z,100.00
2023-01-01T00:58:25.933Z,100.00
2023-01-01T01:00:54.479Z,100.00
2023-01-01T01:03:33.809Z,100.00
2023-01-01T01:06:11.797Z,100.00
2023-01-01T01:08:44.529Z,100.00
2023-01-01T01:11:21.660Z,100.00
2023-01-01T01:13:52.450Z,100.00
2023-01-01T01:16:37.318Z,100.00
2023-01-01T01:19:18.706Z,100.00
2023-01-01T01:21:57.328Z,100.00
2023-01-01T01:24:28.270Z,100.00
2023-01-01T01:26:55.112Z,100.00
2023-01-01T01:32:02.234Z,100.00
2023-01-01T01:34:29.042Z,100.00
2023-01-01T01:36:57.608Z,100.00
2023-01-01T01:39:33.307Z,100.00
2023-01-01T01:42:06.425Z,100.00
2023-01-01T01:45:00.352Z,100.00
2023-01-01T01:47:33.081Z,100.00
2023-01-01T01:50:15.302Z,100.00
2023-01-01T01:52:56.615Z,100.00
2023-01-01T03:36:57.623Z,100.00
2023-01-01T03:39:44.362Z,100.00
2023-01-01T03:42:35.893Z,100.00
2023-01-01T03:45:13.944Z,100.00
2023-01-01T03:47:41.191Z,100.00
2023-01-01T03:50:11.087Z,100.00
2023-01-01T03:53:14.906Z,100.00
2023-01-01T03:55:49.221Z,100.00
2023-01-01T03:58:24.170Z,100.00
2023-01-01T04:01:04.854Z,100.00
2023-01-01T04:03:37.780Z,100.00
2023-01-01T04:06:07.544Z,100.00
2023-01-01T04:08:40.925Z,100.00
2023-01-01T04:11:38.423Z,100.00
2023-01-01T04:14:14.844Z,100.00
2023-01-01T04:16:45.111Z,100.00
2023-01-01T04:19:17.402Z,100.00
2023-01-01T04:21:46.348Z,100.00
2023-01-01T04:24:19.037Z,100.00
2023-01-01T04:26:47.528Z,100.00
2023-01-01T04:29:18.941Z,100.00
2023-01-01T04:31:46.805Z,100.00
2023-01-01T04:34:18.984Z,100.00
2023-01-01T04:39:36.910Z,100.00
2023-01-01T04:42:04.154Z,100.00
2023-01-01T04:44:30.912Z,100.00
2023-01-01T04:47:00.246Z,100.00
2023-01-01T04:49:34.783Z,100.00
2023-01-01T04:52:01.519Z,100.00
2023-01-01T04:54:28.197Z,100.00
2023-01-01T04:56:57.228Z,100.00
2023-01-01T04:59:36.420Z,100.00
2023-01-01T05:02:03.713Z,100.00
2023-01-01T05:04:35.115Z,100.00
2023-01-01T05:07:02.946Z,100.00
2023-01-01T05:09:30.424Z,100.00
2023-01-01T05:11:58.678Z,100.00
2023-01-01T05:14:25.607Z,100.00
2023-01-01T05:16:53.979Z,100.00
2023-01-01T05:19:20.842Z,100.00
2023-01-01T05:21:51.614Z,100.00
2023-01-01T05:24:25.604Z,100.00
2023-01-01T05:26:53.336Z,100.00
2023-01-01T05:29:24.425Z,100.00
2023-01-01T05:31:55.913Z,100.00
2023-01-01T05:36:56.467Z,100.00
2023-01-01T05:39:30.974Z,100.00
2023-01-01T05:42:06.256Z,100.00
2023-01-01T05:47:18.877Z,100.00
2023-01-01T05:49:47.324Z,100.00
2023-01-01T05:52:26.925Z,100.00
2023-01-01T05:54:56.148Z,100.00
2023-01-01T05:57:27.435Z,100.00
2023-01-01T06:03:07.470Z,100.00
2023-01-01T06:05:35.858Z,100.00
2023-01-01T06:08:04.018Z,100.00
2023-01-01T06:10:32.843Z,100.00
2023-01-01T06:13:08.041Z,100.00
2023-01-01T06:15:45.813Z,100.00
2023-01-01T06:18:12.977Z,100.00
2023-01-01T06:20:40.706Z,100.00
2023-01-01T06:25:56.464Z,100.00
2023-01-01T06:31:13.357Z,100.00
2023-01-01T06:33:52.580Z,100.00
2023-01-01T06:36:21.943Z,100.00
2023-01-01T06:38:54.084Z,100.00
2023-01-01T06:41:27.454Z,100.00
2023-01-01T06:44:09.078Z,100.00
2023-01-01T06:46:37.346Z,100.00
2023-01-01T06:49:13.458Z,100.00
2023-01-01T06:54:23.924Z,100.00
2023-01-01T06:56:55.638Z,100.00
2023-01-01T06:59:22.667Z,100.00
2023-01-01T07:01:51.103Z,100.00
2023-01-01T07:04:17.967Z,100.00
2023-01-01T07:06:45.106Z,100.00
2023-01-01T07:09:13.243Z,100.00
2023-01-01T07:11:41.656Z,100.00
2023-01-01T07:14:16.525Z,100.00
2023-01-01T07:16:48.533Z,100.00
2023-01-01T07:19:16.869Z,100.00
2023-01-01T07:21:54.118Z,100.00
2023-01-01T07:24:21.904Z,100.00
2023-01-01T07:26:53.549Z,100.00
2023-01-01T07:29:28.613Z,100.00
2023-01-01T07:34:36.728Z,100.00
2023-01-01T07:37:06.055Z,100.00
2023-01-01T07:39:34.790Z,100.00
2023-01-01T07:42:04.898Z,100.00
2023-01-01T07:44:34.920Z,100.00
2023-01-01T07:47:23.953Z,100.00
2023-01-01T07:49:51.220Z,100.00
2023-01-01T07:55:01.463Z,100.00
2023-01-01T07:57:35.661Z,100.00
2023-01-01T08:00:05.459Z,100.00
2023-01-01T08:02:33.068Z,100.00
2023-01-01T08:05:02.188Z,100.00
2023-01-01T08:07:29.572Z,100.00
2023-01-01T08:10:06.144Z,100.00
2023-01-01T08:12:33.807Z,100.00
2023-01-01T08:15:00.374Z,100.00
2023-01-01T08:17:28.516Z,100.00
2023-01-01T08:19:55.529Z,100.00
2023-01-01T08:22:27.650Z,100.00
2023-01-01T08:24:56.195Z,100.00
2023-01-01T08:27:26.013Z,100.00
2023-01-01T08:29:57.415Z,100.00
2023-01-01T08:32:24.332Z,100.00
2023-01-01T08:34:52.430Z,100.00
2023-01-01T08:37:21.613Z,100.00
2023-01-01T08:39:52.121Z,100.00
2023-01-01T08:42:19.280Z,100.00
2023-01-01T08:44:49.211Z,100.00
2023-01-01T08:47:25.763Z,100.00
2023-01-01T08:49:55.416Z,100.00
2023-01-01T08:52:22.855Z,100.00
2023-01-01T08:54:49.840Z,100.00
2023-01-01T08:57:16.510Z,100.00
2023-01-01T08:59:45.168Z,100.00
2023-01-01T09:02:18.834Z,100.00
2023-01-01T09:04:46.668Z,100.00
2023-01-01T09:09:55.727Z,100.00
2023-01-01T09:12:29.482Z,100.00
2023-01-01T09:14:56.092Z,100.00
2023-01-01T09:20:03.762Z,100.00
2023-01-01T09:22:30.409Z,100.00
2023-01-01T09:24:57.433Z,100.00
2023-01-01T09:27:24.199Z,100.00
2023-01-01T09:29:51.059Z,100.00
2023-01-01T09:32:20.433Z,100.00
2023-01-01T09:34:52.272Z,100.00
2023-01-01T09:37:19.462Z,100.00
2023-01-01T09:39:46.439Z,100.00
2023-01-01T09:42:37.011Z,100.00
2023-01-01T09:45:28.226Z,100.00
2023-01-01T09:51:06.186Z,100.00
2023-01-01T09:54:04.829Z,100.00
2023-01-01T09:59:14.991Z,100.00
2023-01-01T10:01:46.005Z,100.00
2023-01-01T10:04:29.147Z,100.00
2023-01-01T10:07:36.993Z,100.00
2023-01-01T10:10:32.265Z,100.00
2023-01-01T10:13:10.751Z,100.00
2023-01-01T10:15:50.639Z,100.00
2023-01-01T10:18:25.029Z,100.00
2023-01-01T10:21:10.590Z,100.00
2023-01-01T10:23:51.374Z,100.00
2023-01-01T10:26:23.583Z,100.00
2023-01-01T10:29:04.467Z,100.00
2023-01-01T10:31:44.680Z,100.00
2023-01-01T10:34:28.895Z,100.00
2023-01-01T10:37:01.174Z,100.00
2023-01-01T10:39:29.588Z,100.00
2023-01-01T10:41:58.539Z,99.63
2023-01-01T10:44:34.169Z,98.44
2023-01-01T10:47:31.948Z,98.50
2023-01-01T10:50:10.865Z,97.41
2023-01-01T10:52:49.038Z,96.85
2023-01-01T10:55:35.146Z,96.72
2023-01-01T10:58:24.770Z,97.43
2023-01-01T11:13:10.222Z,95.23
2023-01-01T11:15:42.009Z,94.62
2023-01-01T11:18:21.312Z,93.42
2023-01-01T11:20:59.919Z,92.43
2023-01-01T11:23:35.884Z,91.40
2023-01-01T11:26:15.496Z,90.90
2023-01-01T11:28:58.440Z,89.38
2023-01-01T11:31:33.814Z,88.91
2023-01-01T11:34:06.173Z,89.00
2023-01-01T11:36:36.301Z,87.70
2023-01-01T11:42:02.333Z,88.74
2023-01-01T11:44:47.532Z,88.69
2023-01-01T11:50:35.911Z,86.36
2023-01-01T11:53:54.213Z,85.72
2023-01-01T11:56:31.829Z,85.78
2023-01-01T11:59:05.643Z,86.49
2023-01-01T12:01:49.077Z,86.73
2023-01-01T12:07:40.901Z,87.46
2023-01-01T12:10:37.462Z,86.60
2023-01-01T12:13:24.802Z,87.59
2023-01-01T12:25:34.575Z,88.43
2023-01-01T12:28:32.742Z,88.30
2023-01-01T12:37:58.655Z,87.02
2023-01-01T12:40:54.075Z,87.21
2023-01-01T12:43:42.033Z,88.04
2023-01-01T12:47:14.080Z,87.48
2023-01-01T12:53:46.933Z,86.60
2023-01-01T12:56:49.005Z,86.52
2023-01-01T12:59:40.783Z,86.01
2023-01-01T13:02:27.365Z,86.00
2023-01-01T13:18:50.128Z,83.67
2023-01-01T13:21:42.159Z,82.87
2023-01-01T13:24:41.586Z,83.56
2023-01-01T13:27:22.485Z,83.85
2023-01-01T13:30:39.807Z,83.58
2023-01-01T13:33:47.163Z,83.65
2023-01-01T13:36:39.006Z,83.99
2023-01-01T13:55:04.276Z,88.13
2023-01-01T13:57:45.334Z,88.78
2023-01-01T14:00:37.689Z,87.55
2023-01-01T14:11:47.023Z,87.36
2023-01-01T14:14:42.047Z,88.05
2023-01-01T14:17:17.055Z,87.62
2023-01-01T14:19:57.429Z,87.12
2023-01-01T15:12:40.030Z,97.45
2023-01-01T15:34:28.663Z,97.48
2023-01-01T15:43:00.011Z,95.99
2023-01-01T15:48:56.134Z,96.33
2023-01-01T16:06:21.128Z,95.75
2023-01-01T16:17:20.144Z,95.01
2023-01-01T16:25:30.137Z,96.36
2023-01-01T16:36:33.503Z,97.20
2023-01-01T16:44:50.197Z,97.12
2023-01-01T16:50:35.120Z,97.63
2023-01-01T16:55:58.084Z,98.04
2023-01-01T16:58:53.237Z,97.50
2023-01-01T17:04:21.501Z,97.98
2023-01-01T17:12:42.787Z,98.07
2023-01-01T17:26:32.387Z,97.94
2023-01-01T17:32:02.867Z,97.53
2023-01-01T17:34:33.584Z,97.85
2023-01-01T17:37:09.640Z,98.05
2023-01-01T17:45:16.679Z,98.43
2023-01-01T17:50:50.198Z,99.04
2023-01-01T17:53:27.283Z,99.68
2023-01-01T17:55:56.023Z,100.00
2023-01-01T17:58:35.024Z,100.00
2023-01-01T18:01:40.586Z,100.00
2023-01-01T18:07:02.507Z,100.00
2023-01-01T18:15:44.430Z,100.00
2023-01-01T18:18:12.271Z,100.00
2023-01-01T18:20:43.585Z,100.00
2023-01-01T18:23:15.124Z,100.00
2023-01-01T18:28:37.660Z,100.00
2023-01-01T18:49:25.193Z,100.00
2023-01-01T18:59:04.964Z,100.00
2023-01-01T19:07:47.429Z,100.00
2023-01-01T19:32:29.153Z,100.00
2023-01-01T19:43:57.170Z,100.00
2023-01-01T19:46:28.466Z,100.00
2023-01-01T19:54:30.945Z,100.00
2023-01-01T20:01:11.414Z,100.00
2023-01-01T20:22:40.914Z,100.00
2023-01-01T20:44:25.224Z,100.00
2023-01-01T20:50:40.511Z,100.00
2023-01-01T21:38:34.851Z,100.00
2023-01-01T21:47:28.762Z,100.00
2023-01-01T21:52:47.687Z,100.00
2023-01-01T21:56:11.154Z,100.00
2023-01-01T21:59:03.994Z,100.00
2023-01-01T22:01:56.041Z,100.00
2023-01-01T22:13:24.457Z,100.00
2023-01-01T22:19:12.365Z,100.00
2023-01-01T22:21:45.952Z,100.00
2023-01-01T22:27:29.279Z,100.00
2023-01-01T22:35:48.928Z,100.00
2023-01-01T22:41:24.524Z,100.00
2023-01-01T22:55:54.221Z,100.00
2023-01-01T23:01:13.996Z,100.00
2023-01-01T23:06:27.331Z,100.00
2023-01-01T23:09:13.915Z,100.00
2023-01-01T23:17:28.911Z,100.00
2023-01-01T23:20:04.407Z,100.00
2023-01-01T23:33:51.378Z,100.00
2023-01-01T23:39:20.549Z,100.00
2023-01-01T23:47:29.691Z,100.00
2023-01-01T23:52:43.105Z,100.00
2023-01-01T23:55:14.488Z,100.00
